Time;durP1;ratioP1;P1;durP2;ratioP2;P2;SDS_P1;SDS_P2;PMS_P1;PMS_P2;Temp;Humidity;BMP_temperature;BMP_pressure;BME280_temperature;BME280_humidity;BME280_pressure;Samples;Min_cycle;Max_cycle;Signal;HPM_P1;HPM_P2
2022/03/06 00:09:26;;;;;;;14.20;9.40;;;;;;;1.59;46.39;96844.94;4997424;23;20262;-82
2022/03/06 00:11:57;;;;;;;13.70;8.95;;;;;;;1.63;46.45;96842.97;5113869;23;20923;-84
2022/03/06 00:17:29;;;;;;;17.75;8.88;;;;;;;1.59;47.02;96852.66;4979513;28;20047;-82
2022/03/06 00:25:28;;;;;;;13.15;8.38;;;;;;;1.80;47.11;96844.22;5079478;23;20050;-82
2022/03/06 00:33:43;;;;;;;15.90;8.85;;;;;;;1.69;46.88;96854.53;4977247;28;20047;-82
2022/03/06 00:39:37;;;;;;;25.50;12.63;;;;;;;1.63;47.63;96861.78;4979190;28;20051;-81
2022/03/06 00:45:51;;;;;;;26.73;11.55;;;;;;;1.58;48.40;96863.09;4979087;28;20118;-81
2022/03/06 00:48:24;;;;;;;27.23;13.13;;;;;;;1.65;47.30;96872.75;4979047;28;20102;-81
2022/03/06 01:31:29;;;;;;;18.00;10.77;;;;;;;1.76;48.52;96878.81;4981727;23;20129;-76
2022/03/06 01:33:57;;;;;;;16.90;10.35;;;;;;;1.81;48.28;96868.97;4956552;29;20047;-78
2022/03/06 01:36:25;;;;;;;16.80;10.00;;;;;;;1.88;48.25;96872.72;4956006;29;20066;-78
2022/03/06 01:38:52;;;;;;;13.55;9.23;;;;;;;1.92;47.89;96868.13;4956772;29;20081;-78
2022/03/06 01:41:20;;;;;;;17.45;10.75;;;;;;;1.88;47.66;96865.00;4956832;28;20456;-78
2022/03/06 01:43:47;;;;;;;18.42;10.38;;;;;;;1.85;48.07;96860.91;4957438;29;20138;-78
2022/03/06 01:46:15;;;;;;;17.73;11.02;;;;;;;1.81;48.00;96856.94;4956620;29;20150;-78
2022/03/06 01:48:44;;;;;;;17.65;10.15;;;;;;;1.78;48.31;96862.34;4956979;29;20556;-78
2022/03/06 01:51:11;;;;;;;18.25;10.75;;;;;;;1.80;48.19;96857.06;4956579;28;20062;-78
2022/03/06 01:53:39;;;;;;;18.27;10.10;;;;;;;1.82;48.28;96857.78;4957016;29;20050;-79
2022/03/06 01:56:07;;;;;;;26.25;14.25;;;;;;;1.80;47.80;96844.22;4955863;29;20529;-78
2022/03/06 01:58:35;;;;;;;19.98;12.13;;;;;;;1.80;48.17;96846.78;4956770;29;20051;-78
2022/03/06 02:01:03;;;;;;;24.98;12.93;;;;;;;1.87;48.20;96854.84;4956520;28;20310;-78
2022/03/06 02:03:31;;;;;;;22.45;13.15;;;;;;;1.84;47.88;96853.31;4956930;29;20138;-78
2022/03/06 02:05:59;;;;;;;21.00;12.02;;;;;;;1.86;48.14;96854.03;4956145;29;20066;-78
2022/03/06 02:08:27;;;;;;;21.42;12.52;;;;;;;1.82;47.82;96848.28;4955827;29;20055;-78
2022/03/06 02:10:55;;;;;;;20.83;12.00;;;;;;;1.78;48.17;96846.91;4956811;28;20058;-78
2022/03/06 02:13:23;;;;;;;19.65;10.63;;;;;;;1.79;48.22;96852.84;4956661;29;20062;-78
2022/03/06 02:15:52;;;;;;;17.92;10.25;;;;;;;1.78;48.16;96846.09;4955663;29;20437;-78
2022/03/06 02:18:20;;;;;;;18.95;9.88;;;;;;;1.76;48.24;96843.63;4956436;29;20055;-78
2022/03/06 02:20:48;;;;;;;16.83;10.65;;;;;;;1.79;48.35;96851.13;4956358;28;20051;-78
2022/03/06 02:23:17;;;;;;;16.70;10.70;;;;;;;1.80;48.36;96847.59;4956331;29;20055;-78
2022/03/06 02:25:44;;;;;;;16.58;9.88;;;;;;;1.80;48.28;96842.44;4956394;29;20055;-77
2022/03/06 02:28:12;;;;;;;18.70;10.88;;;;;;;1.77;48.19;96854.72;4956197;29;20055;-78
2022/03/06 02:30:41;;;;;;;17.10;9.45;;;;;;;1.71;48.31;96845.75;4956483;28;20403;-78
2022/03/06 02:33:11;;;;;;;19.65;10.85;;;;;;;1.72;48.38;96846.56;4975025;29;20064;-78
2022/03/06 02:35:39;;;;;;;18.90;11.43;;;;;;;1.78;48.28;96846.91;4979004;29;20053;-78
2022/03/06 02:38:07;;;;;;;24.05;12.38;;;;;;;1.83;48.13;96849.91;4956741;29;20055;-78
2022/03/06 02:40:40;;;;;;;22.13;12.30;;;;;;;1.86;48.20;96843.75;4956172;28;20062;-78
2022/03/06 02:43:09;;;;;;;19.25;11.32;;;;;;;1.79;48.20;96843.41;4971442;29;20055;-79
2022/03/06 02:45:39;;;;;;;23.10;11.75;;;;;;;1.67;48.12;96848.69;4968640;29;20421;-79
2022/03/06 02:48:08;;;;;;;19.70;11.55;;;;;;;1.55;48.64;96850.44;4955258;29;20062;-79
2022/03/06 02:50:38;;;;;;;20.80;11.40;;;;;;;1.47;48.88;96847.69;4955650;28;20062;-79
2022/03/06 02:53:08;;;;;;;18.10;9.98;;;;;;;1.41;49.03;96848.94;4955581;29;20058;-78
2022/03/06 02:55:38;;;;;;;18.77;10.73;;;;;;;1.43;49.11;96847.91;4955141;29;20637;-78
2022/03/06 02:58:06;;;;;;;16.08;10.30;;;;;;;1.49;48.71;96850.91;4954890;29;20508;-78
2022/03/06 03:00:34;;;;;;;17.00;10.70;;;;;;;1.46;48.54;96848.59;4955509;28;20051;-78
2022/03/06 03:03:02;;;;;;;15.57;9.77;;;;;;;1.44;49.27;96846.13;4955548;29;20057;-78
2022/03/06 03:05:30;;;;;;;18.40;10.43;;;;;;;1.48;49.21;96846.72;4955825;29;20142;-79
2022/03/06 03:07:58;;;;;;;17.25;10.15;;;;;;;1.57;49.07;96849.38;4954408;29;20438;-78
2022/03/06 03:10:26;;;;;;;17.23;10.00;;;;;;;1.67;48.84;96851.25;4955348;28;20058;-78
2022/03/06 03:12:55;;;;;;;17.58;10.68;;;;;;;1.72;48.60;96847.38;4955453;29;20055;-78
2022/03/06 03:15:23;;;;;;;18.85;11.73;;;;;;;1.78;48.60;96846.91;4955057;29;20048;-78
2022/03/06 03:17:51;;;;;;;24.17;13.50;;;;;;;1.79;48.56;96853.69;4954213;28;20054;-78
2022/03/06 03:20:19;;;;;;;20.85;12.48;;;;;;;1.77;48.49;96850.41;4954827;28;20047;-78
2022/03/06 03:22:47;;;;;;;21.73;13.35;;;;;;;1.75;48.57;96856.59;4954888;29;20051;-78
2022/03/06 03:25:14;;;;;;;22.15;12.50;;;;;;;1.70;48.68;96843.28;4955169;29;20406;-78
2022/03/06 03:27:42;;;;;;;17.55;11.15;;;;;;;1.63;48.64;96848.91;4954625;29;20051;-78
2022/03/06 03:30:14;;;;;;;19.63;11.13;;;;;;;1.54;48.99;96849.63;4955183;28;20047;-78
2022/03/06 03:32:41;;;;;;;17.45;10.98;;;;;;;1.49;49.04;96856.06;4955247;29;20055;-79
2022/03/06 03:35:09;;;;;;;16.75;10.93;;;;;;;1.47;49.14;96863.09;4955039;29;20051;-78
2022/03/06 03:37:37;;;;;;;16.45;10.65;;;;;;;1.36;49.05;96861.34;4954353;28;20124;-78
2022/03/06 03:40:07;;;;;;;19.88;11.57;;;;;;;1.26;49.34;96862.97;4955235;28;20061;-78
2022/03/06 03:42:35;;;;;;;19.27;10.75;;;;;;;1.17;49.17;96862.75;4954853;29;20058;-78
2022/03/06 03:45:03;;;;;;;18.33;11.15;;;;;;;1.09;49.77;96861.69;4955092;29;20469;-78
2022/03/06 03:47:32;;;;;;;18.58;11.57;;;;;;;1.00;50.10;96865.78;4954107;29;20062;-78
2022/03/06 03:50:00;;;;;;;20.67;11.65;;;;;;;0.90;49.83;96877.69;4954975;28;20062;-78
2022/03/06 03:52:27;;;;;;;17.50;10.65;;;;;;;0.82;50.24;96876.50;4954958;29;20055;-78
2022/03/06 03:54:55;;;;;;;16.60;10.02;;;;;;;0.77;50.24;96876.03;4954991;29;20106;-78
2022/03/06 03:57:23;;;;;;;18.73;11.18;;;;;;;0.68;50.36;96871.56;4954853;29;20055;-78
2022/03/06 03:59:51;;;;;;;18.60;11.48;;;;;;;0.60;50.85;96873.88;4954401;29;20047;-78
2022/03/06 04:02:18;;;;;;;17.85;11.77;;;;;;;0.63;51.12;96875.41;4954341;28;20051;-78
2022/03/06 04:04:49;;;;;;;19.25;11.88;;;;;;;0.63;51.08;96868.50;4954783;29;20055;-78
2022/03/06 04:07:16;;;;;;;17.67;10.18;;;;;;;0.65;51.27;96870.97;4954014;29;20077;-79
2022/03/06 04:09:44;;;;;;;19.35;10.82;;;;;;;0.68;51.17;96871.56;4954675;29;20055;-78
2022/03/06 04:12:11;;;;;;;16.67;11.15;;;;;;;0.77;51.25;96868.31;4954583;28;20052;-78
2022/03/06 04:14:39;;;;;;;20.13;11.85;;;;;;;0.81;50.94;96876.63;4954177;29;20513;-78
2022/03/06 04:17:06;;;;;;;16.52;10.73;;;;;;;0.79;50.69;96874.16;4953997;29;20549;-78
2022/03/06 04:19:34;;;;;;;19.85;10.77;;;;;;;0.78;50.94;96877.66;4954808;29;20051;-78
2022/03/06 04:22:03;;;;;;;18.92;11.85;;;;;;;0.73;51.13;96877.19;4954332;28;20560;-78
2022/03/06 04:24:31;;;;;;;23.55;13.70;;;;;;;0.74;51.11;96878.78;4954692;29;20634;-78
2022/03/06 04:26:58;;;;;;;18.20;11.50;;;;;;;0.77;50.87;96883.72;4953910;29;20050;-78
2022/03/06 04:29:26;;;;;;;18.25;11.48;;;;;;;0.77;51.03;96886.28;4954386;28;20059;-78
2022/03/06 04:31:54;;;;;;;18.85;11.27;;;;;;;0.81;51.38;96887.72;4957578;28;20082;-78
2022/03/06 04:34:21;;;;;;;17.00;11.02;;;;;;;0.87;51.03;96890.75;4958770;29;20417;-78
2022/03/06 04:36:49;;;;;;;17.15;10.18;;;;;;;0.94;50.95;96891.91;4957292;29;20480;-77
2022/03/06 04:39:18;;;;;;;16.08;10.18;;;;;;;1.02;51.00;96897.28;4957965;29;20051;-78
2022/03/06 04:41:45;;;;;;;17.02;9.65;;;;;;;1.06;50.72;96891.00;4957965;28;20057;-78
2022/03/06 04:44:13;;;;;;;18.25;10.88;;;;;;;1.11;50.79;96895.78;4958318;29;20399;-78
2022/03/06 04:46:41;;;;;;;17.70;11.48;;;;;;;1.05;50.61;96899.66;4957437;29;20051;-78
2022/03/06 04:49:09;;;;;;;17.08;10.73;;;;;;;0.99;51.01;96895.78;4958441;29;20063;-78
2022/03/06 04:51:36;;;;;;;18.35;10.98;;;;;;;0.98;51.07;96898.47;4958137;28;20055;-76
2022/03/06 04:54:04;;;;;;;17.33;11.43;;;;;;;0.96;51.39;96900.31;4967970;29;20110;-76
2022/03/06 04:56:33;;;;;;;17.88;11.82;;;;;;;1.03;51.49;96906.66;4966205;29;20490;-76
2022/03/06 04:59:01;;;;;;;19.20;11.13;;;;;;;1.01;50.81;96905.94;4964136;29;20051;-76
2022/03/06 05:01:28;;;;;;;20.63;12.02;;;;;;;0.96;51.06;96905.47;4959155;28;20051;-76
2022/03/06 05:03:57;;;;;;;17.52;11.02;;;;;;;0.97;51.23;96907.91;4958234;29;20055;-76
2022/03/06 05:06:24;;;;;;;21.60;12.65;;;;;;;0.96;51.12;96915.72;4957375;29;20048;-76
2022/03/06 05:08:52;;;;;;;17.45;11.05;;;;;;;0.92;51.37;96909.19;4957863;29;20055;-78
2022/03/06 05:11:19;;;;;;;17.85;10.70;;;;;;;0.96;51.45;96913.16;4957979;28;20055;-78
2022/03/06 05:13:48;;;;;;;17.88;11.07;;;;;;;0.99;51.43;96910.38;4958426;29;20055;-78
2022/03/06 05:16:16;;;;;;;20.83;12.60;;;;;;;1.04;51.25;96910.84;4957015;29;20044;-77
2022/03/06 05:18:44;;;;;;;17.98;10.25;;;;;;;1.05;51.25;96915.06;4958367;29;20057;-78
2022/03/06 05:21:11;;;;;;;20.48;12.23;;;;;;;1.05;50.99;96909.94;4963933;28;20062;-78
2022/03/06 05:23:39;;;;;;;16.77;10.93;;;;;;;1.05;51.13;96914.22;4979781;29;20061;-78
2022/03/06 05:26:06;;;;;;;22.70;11.20;;;;;;;1.07;51.22;96908.03;4970904;29;20077;-78
2022/03/06 05:28:34;;;;;;;19.35;11.63;;;;;;;1.12;51.01;96916.25;4958805;29;20437;-78
2022/03/06 05:31:07;;;;;;;17.95;11.48;;;;;;;1.13;51.17;96917.06;4961722;28;20042;-78
2022/03/06 05:33:35;;;;;;;19.52;11.90;;;;;;;1.11;50.81;96919.72;4977883;29;20050;-78
2022/03/06 05:36:03;;;;;;;18.10;11.18;;;;;;;1.03;50.89;96915.19;4961789;29;20058;-78
2022/03/06 05:38:30;;;;;;;17.95;11.55;;;;;;;1.01;51.17;96911.09;4957601;29;20055;-78
2022/03/06 05:40:58;;;;;;;17.52;11.57;;;;;;;1.01;50.98;96921.38;4957708;28;20509;-78
2022/03/06 05:43:25;;;;;;;19.10;10.68;;;;;;;0.94;50.87;96915.03;4958269;29;20071;-78
2022/03/06 05:45:53;;;;;;;21.38;11.40;;;;;;;0.85;50.90;96924.22;4956769;29;20358;-78
2022/03/06 05:48:22;;;;;;;17.50;11.07;;;;;;;0.78;51.34;96928.19;4957024;29;20051;-78
2022/03/06 05:50:50;;;;;;;20.45;11.95;;;;;;;0.75;51.38;96934.38;4957184;28;20057;-78
2022/03/06 05:53:17;;;;;;;20.40;12.02;;;;;;;0.69;51.46;96929.69;4955649;29;20048;-78
2022/03/06 05:55:45;;;;;;;20.77;11.88;;;;;;;0.60;51.54;96935.50;4954949;29;20059;-77
2022/03/06 05:58:12;;;;;;;27.67;14.82;;;;;;;0.53;51.63;96935.13;4955416;29;20453;-77
2022/03/06 06:00:40;;;;;;;26.98;13.85;;;;;;;0.50;51.93;96935.31;4955018;28;20051;-78
2022/03/06 06:03:07;;;;;;;28.33;16.40;;;;;;;0.46;51.82;96943.34;4956680;29;20051;-78
2022/03/06 06:05:38;;;;;;;24.77;14.18;;;;;;;0.40;52.13;96945.44;4957470;29;20047;-78
2022/03/06 06:08:05;;;;;;;22.13;13.25;;;;;;;0.38;51.84;96941.34;4957780;29;20055;-78
2022/03/06 06:10:33;;;;;;;22.02;11.15;;;;;;;0.39;52.23;96950.69;4957820;28;20051;-75
2022/03/06 06:13:00;;;;;;;25.00;13.38;;;;;;;0.38;52.26;96949.06;4957474;29;20051;-76
2022/03/06 06:15:28;;;;;;;20.17;11.32;;;;;;;0.45;52.26;96942.53;4956623;29;20054;-76
2022/03/06 06:17:55;;;;;;;20.63;11.65;;;;;;;0.52;51.95;96942.91;4955547;29;20051;-75
2022/03/06 06:20:23;;;;;;;22.65;12.02;;;;;;;0.61;52.12;96949.94;4956478;28;20051;-78
2022/03/06 06:22:53;;;;;;;22.88;12.45;;;;;;;0.61;52.01;96948.22;4957239;29;20059;-78
2022/03/06 06:25:20;;;;;;;17.88;11.77;;;;;;;0.59;51.70;96964.66;4957276;29;20051;-78
2022/03/06 06:27:48;;;;;;;19.38;11.30;;;;;;;0.57;51.94;96963.97;4956431;29;20047;-77
2022/03/06 06:30:15;;;;;;;21.02;11.80;;;;;;;0.59;52.11;96956.94;4956869;28;20059;-79
2022/03/06 06:32:43;;;;;;;23.08;11.45;;;;;;;0.60;52.09;96953.47;4955624;28;20465;-81
2022/03/06 06:35:10;;;;;;;21.48;12.73;;;;;;;0.63;51.89;96955.78;4956551;29;20486;-80
2022/03/06 06:37:38;;;;;;;20.92;13.15;;;;;;;0.59;52.25;96954.38;4955624;29;20047;-81
2022/03/06 06:40:08;;;;;;;21.65;12.90;;;;;;;0.56;52.04;96955.41;4954813;28;20059;-78
2022/03/06 06:42:36;;;;;;;17.55;11.20;;;;;;;0.64;52.41;96961.78;4955973;29;20051;-80
2022/03/06 06:45:04;;;;;;;24.52;15.50;;;;;;;0.74;52.18;96958.41;4956080;29;20066;-80
2022/03/06 06:47:31;;;;;;;21.08;12.20;;;;;;;0.87;52.05;96957.50;4954781;29;20050;-80
2022/03/06 06:49:59;;;;;;;20.85;11.80;;;;;;;1.04;51.87;96964.81;4955297;28;20051;-79
2022/03/06 06:52:26;;;;;;;21.95;13.18;;;;;;;1.20;51.68;96960.19;4955048;28;20047;-78
2022/03/06 06:54:54;;;;;;;20.73;12.20;;;;;;;1.35;51.48;96965.09;4954972;29;20064;-79
2022/03/06 06:57:23;;;;;;;20.48;12.48;;;;;;;1.47;51.43;96961.59;4954387;29;20054;-79
2022/03/06 06:59:50;;;;;;;19.08;12.40;;;;;;;1.58;51.17;96963.34;4955754;29;20051;-79
2022/03/06 07:02:18;;;;;;;20.08;12.40;;;;;;;1.76;51.08;96961.13;4955387;28;20051;-78
2022/03/06 07:04:45;;;;;;;20.23;12.65;;;;;;;1.91;50.80;96959.94;4955483;29;20058;-79
2022/03/06 07:07:13;;;;;;;20.60;13.02;;;;;;;2.02;50.34;96967.66;4954580;29;20422;-78
2022/03/06 07:09:41;;;;;;;24.92;12.55;;;;;;;2.14;50.83;96965.03;4956467;29;20134;-78
2022/03/06 07:12:09;;;;;;;21.42;13.25;;;;;;;2.33;50.34;96956.69;4963347;28;20051;-79
2022/03/06 07:14:38;;;;;;;19.15;12.00;;;;;;;2.52;50.64;96963.78;4965765;29;20047;-79
2022/03/06 07:17:06;;;;;;;19.85;12.38;;;;;;;2.66;50.42;96971.22;4963539;29;20429;-78
2022/03/06 07:19:34;;;;;;;17.95;11.35;;;;;;;2.81;49.91;96967.41;4955715;29;20063;-78
2022/03/06 07:22:01;;;;;;;19.70;12.27;;;;;;;2.97;49.66;96963.59;4955220;28;20050;-79
2022/03/06 07:24:29;;;;;;;16.02;11.32;;;;;;;3.14;49.48;96973.31;4955458;29;20691;-80
2022/03/06 07:26:56;;;;;;;22.05;12.80;;;;;;;3.32;49.34;96976.13;4955194;29;20469;-80
2022/03/06 07:29:24;;;;;;;19.60;12.80;;;;;;;3.47;48.78;96967.13;4957047;29;20066;-79
2022/03/06 07:31:56;;;;;;;16.70;11.27;;;;;;;3.65;49.12;96974.28;4981439;23;20042;-87
2022/03/06 07:34:27;;;;;;;;;;;;;;;3.87;47.67;96973.28;4974727;29;20061;-86
2022/03/06 07:37:14;;;;;;;15.88;11.13;;;;;;;4.02;47.10;96969.38;4972150;29;19926;-90
2022/03/06 07:39:58;;;;;;;16.83;11.25;;;;;;;4.16;46.95;96975.16;4976058;28;20039;-84
2022/03/06 07:42:31;;;;;;;17.90;11.45;;;;;;;4.29;46.79;96971.38;4974479;28;20059;-86
2022/03/06 07:45:09;;;;;;;16.35;10.45;;;;;;;4.47;46.05;96973.28;4972345;28;20055;-84
2022/03/06 07:47:52;;;;;;;15.70;9.52;;;;;;;4.66;44.76;96975.91;4978018;28;20066;-89
2022/03/06 07:50:32;;;;;;;15.45;10.30;;;;;;;4.81;45.12;96976.31;4979438;28;20039;-88
2022/03/06 07:53:04;;;;;;;16.25;11.18;;;;;;;4.91;44.97;96982.28;4979215;28;20042;-89
2022/03/06 07:55:45;;;;;;;14.75;10.40;;;;;;;5.05;44.34;96978.47;4976671;28;20458;-91
2022/03/06 07:58:24;;;;;;;18.73;10.57;;;;;;;5.23;43.79;96983.75;4977443;29;20051;-90
2022/03/06 08:01:03;;;;;;;16.65;10.52;;;;;;;5.40;43.82;96979.66;4979321;28;20059;-89
2022/03/06 08:03:48;;;;;;;17.27;11.50;;;;;;;5.60;42.28;96990.75;4979341;28;20046;-89
2022/03/06 08:06:23;;;;;;;14.65;10.20;;;;;;;5.80;42.46;96988.09;4981490;28;20079;-88
2022/03/06 08:08:58;;;;;;;15.90;10.35;;;;;;;5.93;41.64;96986.00;4982307;28;20047;-89
2022/03/06 08:11:25;;;;;;;15.20;9.68;;;;;;;6.07;42.73;96988.13;4967171;28;20048;-89
2022/03/06 08:13:53;;;;;;;16.08;10.55;;;;;;;6.24;42.57;96981.38;4970396;29;20047;-87
2022/03/06 08:16:21;;;;;;;14.13;9.93;;;;;;;6.39;41.57;96981.69;4971585;29;20051;-87
2022/03/06 08:18:50;;;;;;;18.20;11.35;;;;;;;6.51;41.20;96979.72;4971386;29;20054;-89
2022/03/06 08:21:18;;;;;;;15.43;9.90;;;;;;;6.71;41.00;96985.56;4968238;28;20147;-88
2022/03/06 08:23:45;;;;;;;19.50;10.60;;;;;;;6.88;40.12;96981.34;4967217;29;20051;-85
2022/03/06 08:26:13;;;;;;;16.60;11.05;;;;;;;7.06;39.99;96983.94;4966863;29;20059;-83
2022/03/06 08:28:40;;;;;;;12.68;9.85;;;;;;;7.20;39.40;96980.81;4972786;29;20051;-84
2022/03/06 08:31:08;;;;;;;12.75;9.40;;;;;;;7.33;39.19;96978.63;4973842;28;20063;-92
2022/03/06 08:33:36;;;;;;;16.13;11.48;;;;;;;7.47;38.96;96979.84;4972500;28;20833;-91
2022/03/06 08:36:07;;;;;;;16.42;10.85;;;;;;;7.66;38.40;96983.22;4977197;29;20062;-90
2022/03/06 08:38:35;;;;;;;15.85;9.98;;;;;;;7.80;37.65;96982.63;4969847;29;20047;-86
2022/03/06 08:41:03;;;;;;;14.50;10.70;;;;;;;7.94;37.74;96981.25;4965996;28;20075;-89
2022/03/06 08:43:31;;;;;;;16.30;10.57;;;;;;;8.08;37.14;96985.84;4965183;29;20051;-86
2022/03/06 08:45:58;;;;;;;14.32;10.38;;;;;;;8.25;36.91;96986.72;4968763;28;20044;-84
2022/03/06 08:48:26;;;;;;;18.33;11.27;;;;;;;8.38;36.00;96987.09;4968899;29;20621;-87
2022/03/06 08:50:54;;;;;;;14.00;9.90;;;;;;;8.50;35.95;96984.22;4967319;29;20059;-81
2022/03/06 08:53:25;;;;;;;15.25;9.80;;;;;;;8.63;36.16;96985.38;4967257;28;20051;-85
2022/03/06 08:56:04;;;;;;;13.63;10.10;;;;;;;8.79;36.28;96995.00;4972381;28;20139;-81
2022/03/06 08:58:35;;;;;;;13.23;9.82;;;;;;;8.92;34.75;96997.13;4971152;29;20051;-84
2022/03/06 09:01:03;;;;;;;14.98;10.75;;;;;;;9.01;34.63;96987.56;4976532;28;20039;-88
2022/03/06 09:03:32;;;;;;;16.35;10.98;;;;;;;9.14;34.75;96987.03;4975028;29;20047;-84
2022/03/06 09:06:01;;;;;;;15.80;10.55;;;;;;;9.34;34.61;96982.34;4977303;28;20051;-87
2022/03/06 09:08:30;;;;;;;18.85;12.30;;;;;;;9.54;33.87;96985.41;4980715;28;20103;-89
2022/03/06 09:11:00;;;;;;;14.27;9.98;;;;;;;9.75;33.80;96983.09;4980729;28;20066;-90
2022/03/06 09:13:29;;;;;;;15.18;11.05;;;;;;;9.99;33.23;96981.34;4980879;28;20039;-91
2022/03/06 09:15:58;;;;;;;13.57;10.35;;;;;;;10.15;33.03;96976.09;4979815;28;20039;-90
2022/03/06 09:18:26;;;;;;;14.43;9.85;;;;;;;10.39;32.64;96977.00;4980608;28;20042;-89
2022/03/06 09:20:57;;;;;;;15.05;11.65;;;;;;;10.65;32.32;96984.53;4980516;28;20043;-90
2022/03/06 09:23:26;;;;;;;13.75;10.05;;;;;;;10.91;31.50;96979.78;4981788;28;20032;-89
2022/03/06 09:25:59;;;;;;;12.77;10.00;;;;;;;11.12;30.89;96975.69;4981355;28;20035;-88
2022/03/06 09:28:27;;;;;;;14.27;9.98;;;;;;;11.31;30.49;96974.38;4981676;28;20078;-89
2022/03/06 09:31:01;;;;;;;12.85;9.88;;;;;;;11.49;30.08;96969.63;4981907;28;20071;-90
2022/03/06 09:33:37;;;;;;;14.75;10.23;;;;;;;11.73;29.57;96970.38;4981787;28;20153;-88
2022/03/06 09:36:22;;;;;;;13.27;9.40;;;;;;;12.03;28.35;96978.28;4981130;28;20067;-89
2022/03/06 09:39:38;;;;;;;13.45;9.90;;;;;;;12.36;28.22;96968.22;4981346;28;20031;-89
2022/03/06 09:43:06;;;;;;;12.73;9.52;;;;;;;12.60;26.72;96977.53;4981515;28;20047;-89
2022/03/06 10:01:22;;;;;;;15.95;10.77;;;;;;;14.41;24.36;96976.03;4870125;28;20043;-89
2022/03/06 10:26:07;;;;;;;16.60;8.95;;;;;;;12.27;24.76;96972.72;4979593;28;20039;-89
2022/03/06 10:29:11;;;;;;;13.90;10.32;;;;;;;11.41;25.58;96967.09;4979899;28;20050;-89
2022/03/06 13:29:34;;;;;;;;;;;;;;;5.58;35.17;96935.72;4884199;29;20063;-87
2022/03/06 13:32:28;;;;;;;;;;;;;;;5.55;35.04;96936.84;4935898;28;19906;-88
2022/03/06 13:34:56;;;;;;;15.68;8.88;;;;;;;5.48;34.97;96928.00;4957624;28;19946;-86
2022/03/06 13:37:40;;;;;;;13.13;8.77;;;;;;;5.44;35.04;96925.84;4959786;28;20056;-89
2022/03/06 13:40:14;;;;;;;11.55;8.23;;;;;;;5.44;35.44;96934.41;4957309;29;20043;-85
2022/03/06 13:42:45;;;;;;;12.93;8.90;;;;;;;5.45;35.32;96930.06;4955835;28;20059;-89
2022/03/06 13:45:15;;;;;;;11.05;8.50;;;;;;;5.45;35.33;96925.69;4956633;28;20028;-87
2022/03/06 13:47:46;;;;;;;11.48;8.70;;;;;;;5.43;35.01;96924.22;4960130;29;20115;-89
2022/03/06 13:50:21;;;;;;;12.95;8.90;;;;;;;5.41;35.31;96923.53;4960445;28;20039;-89
2022/03/06 13:52:51;;;;;;;13.27;8.90;;;;;;;5.38;35.51;96919.47;4959906;29;20047;-89
2022/03/06 13:55:22;;;;;;;12.57;8.98;;;;;;;5.36;35.26;96917.00;4955578;29;20162;-89
2022/03/06 13:58:00;;;;;;;11.73;9.65;;;;;;;5.35;35.45;96920.53;4957069;28;20111;-89
2022/03/06 14:00:32;;;;;;;11.55;8.90;;;;;;;5.33;35.81;96925.03;4958207;29;20078;-86
2022/03/06 14:03:02;;;;;;;11.25;9.07;;;;;;;5.39;35.83;96928.03;4956441;29;20120;-88
2022/03/06 14:05:45;;;;;;;13.05;8.63;;;;;;;5.43;35.64;96927.63;4959455;29;20036;-85
2022/03/06 14:08:21;;;;;;;10.65;8.18;;;;;;;5.39;34.93;96918.50;4953487;29;20070;-86
2022/03/06 14:10:51;;;;;;;11.57;8.40;;;;;;;5.31;35.06;96923.56;4951065;29;20055;-85
2022/03/06 14:13:24;;;;;;;11.38;9.02;;;;;;;5.23;35.13;96921.69;4952565;29;20573;-84
2022/03/06 14:15:59;;;;;;;12.20;8.40;;;;;;;5.22;34.93;96929.56;4948751;29;20062;-81
2022/03/06 14:18:41;;;;;;;10.77;8.43;;;;;;;5.17;34.79;96922.25;4952197;29;20502;-85
2022/03/06 14:21:18;;;;;;;11.98;8.50;;;;;;;5.17;34.90;96922.25;4955692;28;20052;-89
2022/03/06 14:23:47;;;;;;;11.50;8.95;;;;;;;5.18;35.37;96917.88;4954414;28;20059;-87
2022/03/06 14:26:18;;;;;;;10.18;7.20;;;;;;;5.15;35.42;96919.78;4943677;29;20573;-89
2022/03/06 14:28:51;;;;;;;12.15;8.43;;;;;;;5.17;35.58;96911.91;4944269;29;20180;-85
2022/03/06 14:31:37;;;;;;;12.85;8.45;;;;;;;5.23;35.14;96910.53;4945148;29;20487;-87
2022/03/06 14:34:05;;;;;;;12.25;8.57;;;;;;;5.27;35.45;96911.84;4944872;29;20058;-90
2022/03/06 14:36:33;;;;;;;10.32;7.57;;;;;;;5.27;35.50;96917.03;4943154;29;20058;-91
2022/03/06 14:39:01;;;;;;;11.30;7.90;;;;;;;5.29;35.30;96915.13;4943209;29;20047;-92
2022/03/06 14:41:29;;;;;;;10.85;8.30;;;;;;;5.31;35.54;96920.97;4942729;29;20078;-92
2022/03/06 14:43:57;;;;;;;13.95;9.25;;;;;;;5.31;35.67;96919.22;4942600;29;20430;-88
2022/03/06 14:46:25;;;;;;;12.35;9.18;;;;;;;5.34;35.06;96921.50;4942205;29;20059;-89
2022/03/06 14:48:54;;;;;;;11.00;8.52;;;;;;;5.34;35.64;96913.75;4940719;29;20075;-89
2022/03/06 14:51:23;;;;;;;11.90;8.68;;;;;;;5.32;35.10;96915.66;4943077;29;20421;-89
2022/03/06 14:53:51;;;;;;;11.70;8.13;;;;;;;5.31;35.13;96920.97;4941040;29;20138;-90
2022/03/06 14:56:20;;;;;;;10.25;8.43;;;;;;;5.25;35.81;96919.78;4942342;29;20063;-90
2022/03/06 14:58:48;;;;;;;11.07;8.43;;;;;;;5.27;35.88;96928.22;4953572;29;20116;-89
2022/03/06 15:01:16;;;;;;;11.60;8.38;;;;;;;5.26;35.63;96915.41;4956888;29;20066;-88
2022/03/06 15:03:50;;;;;;;11.38;8.23;;;;;;;5.24;35.61;96918.13;4949154;29;20054;-89
2022/03/06 15:06:19;;;;;;;11.27;8.05;;;;;;;5.22;35.30;96920.03;4940331;29;20054;-90
2022/03/06 15:08:48;;;;;;;10.63;7.25;;;;;;;5.21;35.84;96917.59;4941609;29;20043;-90
2022/03/06 15:11:16;;;;;;;11.65;7.95;;;;;;;5.20;35.21;96909.00;4946842;28;20058;-89
2022/03/06 15:13:45;;;;;;;10.40;7.93;;;;;;;5.22;35.48;96916.63;4958849;28;20091;-87
2022/03/06 15:16:16;;;;;;;10.70;7.88;;;;;;;5.25;34.98;96913.78;4956170;29;20036;-83
2022/03/06 15:18:49;;;;;;;14.32;10.02;;;;;;;5.24;35.17;96905.19;4954107;29;20074;-89
2022/03/06 15:21:19;;;;;;;11.05;8.27;;;;;;;5.26;35.09;96908.47;4951262;29;20130;-84
2022/03/06 15:23:48;;;;;;;9.80;7.70;;;;;;;5.28;35.10;96906.53;4949221;29;20052;-87
2022/03/06 15:26:20;;;;;;;10.90;8.00;;;;;;;5.32;35.02;96904.50;4958918;28;20051;-91
2022/03/06 15:28:59;;;;;;;11.68;7.68;;;;;;;5.29;34.97;96904.78;4955526;29;20054;-90
2022/03/06 15:31:29;;;;;;;10.80;7.60;;;;;;;5.24;34.76;96910.38;4953576;29;20087;-89
2022/03/06 15:34:13;;;;;;;9.77;7.28;;;;;;;5.21;35.22;96917.59;4947818;29;20082;-90
2022/03/06 15:36:53;;;;;;;12.15;7.90;;;;;;;5.19;34.85;96916.94;4947388;29;20094;-90
2022/03/06 15:39:35;;;;;;;12.07;8.30;;;;;;;5.13;35.15;96923.47;4943274;29;20043;-88
2022/03/06 15:42:08;;;;;;;11.18;7.60;;;;;;;5.07;35.50;96918.84;4942657;29;20112;-86
2022/03/06 15:44:37;;;;;;;10.73;8.25;;;;;;;4.99;35.74;96921.34;4940547;29;20047;-85
2022/03/06 15:47:06;;;;;;;10.00;8.10;;;;;;;4.93;36.32;96920.91;4943107;29;20052;-91
2022/03/06 15:49:34;;;;;;;11.38;7.90;;;;;;;4.92;35.95;96918.50;4946149;29;20062;-89
2022/03/06 15:52:04;;;;;;;12.35;7.95;;;;;;;4.88;36.38;96928.28;4942576;29;20071;-89
2022/03/06 15:54:32;;;;;;;13.50;8.48;;;;;;;4.87;36.61;96929.22;4941879;29;20138;-90
2022/03/06 15:57:04;;;;;;;11.00;7.78;;;;;;;4.84;36.51;96932.09;4941463;29;20502;-90
2022/03/06 15:59:32;;;;;;;9.40;7.55;;;;;;;4.80;36.56;96935.91;4941630;29;20063;-90
2022/03/06 16:02:01;;;;;;;10.90;8.00;;;;;;;4.78;36.54;96932.63;4943375;29;20106;-85
2022/03/06 16:04:29;;;;;;;11.80;8.02;;;;;;;4.77;36.41;96931.00;4942716;29;20060;-90
2022/03/06 16:06:57;;;;;;;11.25;7.80;;;;;;;4.74;36.64;96936.44;4944374;29;20047;-88
2022/03/06 16:09:26;;;;;;;9.68;7.82;;;;;;;4.71;36.52;96936.72;4945451;29;20056;-88
2022/03/06 16:11:54;;;;;;;11.63;7.65;;;;;;;4.70;36.49;96937.66;4946495;29;20146;-87
2022/03/06 16:14:22;;;;;;;10.73;8.20;;;;;;;4.67;36.73;96945.69;4945187;29;20051;-91
2022/03/06 16:16:53;;;;;;;11.95;8.55;;;;;;;4.61;36.99;96941.06;4948603;29;20059;-90
2022/03/06 16:19:22;;;;;;;9.98;7.78;;;;;;;4.59;36.99;96937.81;4945758;29;20107;-86
2022/03/06 16:21:52;;;;;;;11.10;8.40;;;;;;;4.60;36.69;96932.50;4944976;29;20078;-84
2022/03/06 16:24:20;;;;;;;10.30;7.30;;;;;;;4.58;36.60;96942.16;4943444;29;20059;-81
2022/03/06 16:26:49;;;;;;;10.85;8.18;;;;;;;4.54;36.72;96940.78;4943838;29;20055;-83
2022/03/06 16:29:16;;;;;;;11.52;8.00;;;;;;;4.49;36.79;96937.81;4947550;29;20062;-81